sensor_id;sensor_type;location;lat;lon;timestamp;P1;durP1;ratioP1;P2;durP2;ratioP2
63874;SDS011;51595;24.180;-110.296;2022-09-30T00:00:30;13.23;;;2.53;;
63874;SDS011;51595;24.180;-110.296;2022-09-30T00:02:57;10.55;;;2.67;;
63874;SDS011;51595;24.180;-110.296;2022-09-30T00:05:23;12.15;;;2.63;;
63874;SDS011;51595;24.180;-110.296;2022-09-30T00:07:50;7.93;;;2.55;;
63874;SDS011;51595;24.180;-110.296;2022-09-30T00:10:17;6.30;;;2.40;;
63874;SDS011;51595;24.180;-110.296;2022-09-30T00:12:43;8.82;;;2.88;;
63874;SDS011;51595;24.180;-110.296;2022-09-30T00:15:10;5.68;;;2.35;;
63874;SDS011;51595;24.180;-110.296;2022-09-30T00:17:37;5.75;;;2.50;;
63874;SDS011;51595;24.180;-110.296;2022-09-30T00:20:04;8.40;;;2.40;;
63874;SDS011;51595;24.180;-110.296;2022-09-30T00:22:30;7.18;;;2.40;;
63874;SDS011;51595;24.180;-110.296;2022-09-30T00:24:57;6.82;;;2.20;;
63874;SDS011;51595;24.180;-110.296;2022-09-30T00:27:23;8.50;;;2.40;;
63874;SDS011;51595;24.180;-110.296;2022-09-30T00:29:50;8.30;;;2.97;;
63874;SDS011;51595;24.180;-110.296;2022-09-30T00:32:16;12.45;;;3.38;;
63874;SDS011;51595;24.180;-110.296;2022-09-30T00:34:43;11.52;;;2.70;;
63874;SDS011;51595;24.180;-110.296;2022-09-30T00:37:09;12.15;;;2.58;;
63874;SDS011;51595;24.180;-110.296;2022-09-30T00:39:39;5.05;;;2.50;;
63874;SDS011;51595;24.180;-110.296;2022-09-30T00:42:06;10.48;;;2.45;;
63874;SDS011;51595;24.180;-110.296;2022-09-30T00:44:51;8.73;;;2.58;;
63874;SDS011;51595;24.180;-110.296;2022-09-30T00:47:37;10.85;;;2.47;;
63874;SDS011;51595;24.180;-110.296;2022-09-30T00:53:14;15.57;;;2.60;;
63874;SDS011;51595;24.180;-110.296;2022-09-30T01:01:20;8.45;;;2.95;;
63874;SDS011;51595;24.180;-110.296;2022-09-30T01:03:51;13.48;;;3.30;;
63874;SDS011;51595;24.180;-110.296;2022-09-30T01:06:22;11.00;;;3.17;;
63874;SDS011;51595;24.180;-110.296;2022-09-30T01:08:49;7.38;;;2.90;;
63874;SDS011;51595;24.180;-110.296;2022-09-30T01:11:17;7.85;;;2.70;;
63874;SDS011;51595;24.180;-110.296;2022-09-30T01:13:44;9.35;;;2.90;;
63874;SDS011;51595;24.180;-110.296;2022-09-30T01:29:55;6.95;;;2.20;;
63874;SDS011;51595;24.180;-110.296;2022-09-30T01:32:49;4.15;;;2.20;;
63874;SDS011;51595;24.180;-110.296;2022-09-30T01:41:04;6.15;;;2.35;;
63874;SDS011;51595;24.180;-110.296;2022-09-30T01:44:15;7.07;;;2.53;;
63874;SDS011;51595;24.180;-110.296;2022-09-30T01:46:37;6.00;;;2.37;;
63874;SDS011;51595;24.180;-110.296;2022-09-30T01:57:15;7.60;;;2.10;;
63874;SDS011;51595;24.180;-110.296;2022-09-30T01:59:51;9.50;;;2.60;;
63874;SDS011;51595;24.180;-110.296;2022-09-30T02:02:25;9.25;;;2.30;;
63874;SDS011;51595;24.180;-110.296;2022-09-30T02:04:59;7.47;;;2.67;;
63874;SDS011;51595;24.180;-110.296;2022-09-30T02:07:31;10.93;;;2.77;;
63874;SDS011;51595;24.180;-110.296;2022-09-30T02:12:40;8.90;;;3.10;;
63874;SDS011;51595;24.180;-110.296;2022-09-30T02:15:14;7.15;;;2.70;;
63874;SDS011;51595;24.180;-110.296;2022-09-30T02:20:40;9.70;;;2.92;;
63874;SDS011;51595;24.180;-110.296;2022-09-30T02:23:18;9.45;;;2.78;;
63874;SDS011;51595;24.180;-110.296;2022-09-30T02:25:54;9.18;;;3.13;;
63874;SDS011;51595;24.180;-110.296;2022-09-30T02:28:30;8.60;;;3.33;;
63874;SDS011;51595;24.180;-110.296;2022-09-30T02:30:58;10.80;;;3.05;;
63874;SDS011;51595;24.180;-110.296;2022-09-30T02:36:19;6.93;;;2.97;;
63874;SDS011;51595;24.180;-110.296;2022-09-30T02:38:56;7.93;;;2.95;;
63874;SDS011;51595;24.180;-110.296;2022-09-30T02:41:31;7.95;;;2.50;;
63874;SDS011;51595;24.180;-110.296;2022-09-30T02:44:02;4.85;;;2.88;;
63874;SDS011;51595;24.180;-110.296;2022-09-30T02:46:38;7.03;;;2.65;;
63874;SDS011;51595;24.180;-110.296;2022-09-30T02:49:07;5.63;;;2.70;;
63874;SDS011;51595;24.180;-110.296;2022-09-30T02:51:44;2.65;;;2.25;;
63874;SDS011;51595;24.180;-110.296;2022-09-30T02:57:29;5.72;;;2.42;;
63874;SDS011;51595;24.180;-110.296;2022-09-30T03:00:15;7.57;;;2.80;;
63874;SDS011;51595;24.180;-110.296;2022-09-30T03:02:42;5.43;;;2.70;;
63874;SDS011;51595;24.180;-110.296;2022-09-30T03:05:09;5.10;;;3.15;;
63874;SDS011;51595;24.180;-110.296;2022-09-30T03:07:37;9.95;;;2.80;;
63874;SDS011;51595;24.180;-110.296;2022-09-30T03:10:14;7.72;;;2.80;;
63874;SDS011;51595;24.180;-110.296;2022-09-30T03:21:17;8.98;;;2.38;;
63874;SDS011;51595;24.180;-110.296;2022-09-30T03:32:34;13.35;;;2.95;;
63874;SDS011;51595;24.180;-110.296;2022-09-30T03:41:02;10.25;;;3.35;;
63874;SDS011;51595;24.180;-110.296;2022-09-30T03:43:49;7.22;;;2.92;;
63874;SDS011;51595;24.180;-110.296;2022-09-30T03:47:01;6.93;;;2.92;;
63874;SDS011;51595;24.180;-110.296;2022-09-30T03:49:29;6.53;;;2.90;;
63874;SDS011;51595;24.180;-110.296;2022-09-30T03:52:08;12.63;;;3.20;;
63874;SDS011;51595;24.180;-110.296;2022-09-30T03:54:46;9.30;;;2.65;;
63874;SDS011;51595;24.180;-110.296;2022-09-30T03:57:16;10.05;;;2.97;;
63874;SDS011;51595;24.180;-110.296;2022-09-30T03:59:43;12.27;;;3.63;;
63874;SDS011;51595;24.180;-110.296;2022-09-30T04:02:09;16.85;;;3.30;;
63874;SDS011;51595;24.180;-110.296;2022-09-30T04:04:40;14.95;;;2.88;;
63874;SDS011;51595;24.180;-110.296;2022-09-30T04:07:07;13.20;;;3.20;;
63874;SDS011;51595;24.180;-110.296;2022-09-30T04:09:35;16.30;;;4.57;;
63874;SDS011;51595;24.180;-110.296;2022-09-30T04:12:02;19.23;;;3.45;;
63874;SDS011;51595;24.180;-110.296;2022-09-30T04:14:29;17.40;;;3.13;;
63874;SDS011;51595;24.180;-110.296;2022-09-30T04:16:56;15.55;;;3.38;;
63874;SDS011;51595;24.180;-110.296;2022-09-30T04:19:22;14.63;;;3.58;;
63874;SDS011;51595;24.180;-110.296;2022-09-30T04:21:52;15.45;;;3.63;;
63874;SDS011;51595;24.180;-110.296;2022-09-30T04:24:20;16.25;;;3.70;;
63874;SDS011;51595;24.180;-110.296;2022-09-30T04:26:50;8.85;;;3.30;;
63874;SDS011;51595;24.180;-110.296;2022-09-30T04:29:17;14.77;;;4.13;;
63874;SDS011;51595;24.180;-110.296;2022-09-30T04:31:43;14.18;;;3.90;;
63874;SDS011;51595;24.180;-110.296;2022-09-30T04:34:10;21.77;;;3.75;;
63874;SDS011;51595;24.180;-110.296;2022-09-30T04:36:37;14.85;;;3.55;;
63874;SDS011;51595;24.180;-110.296;2022-09-30T04:39:03;20.10;;;4.18;;
63874;SDS011;51595;24.180;-110.296;2022-09-30T04:41:30;16.83;;;4.18;;
63874;SDS011;51595;24.180;-110.296;2022-09-30T04:43:58;19.85;;;3.92;;
63874;SDS011;51595;24.180;-110.296;2022-09-30T04:46:31;12.55;;;3.85;;
63874;SDS011;51595;24.180;-110.296;2022-09-30T04:48:58;18.10;;;3.72;;
63874;SDS011;51595;24.180;-110.296;2022-09-30T04:51:25;16.40;;;3.60;;
63874;SDS011;51595;24.180;-110.296;2022-09-30T04:53:51;9.88;;;3.20;;
63874;SDS011;51595;24.180;-110.296;2022-09-30T04:56:18;8.82;;;3.00;;
63874;SDS011;51595;24.180;-110.296;2022-09-30T04:58:44;11.68;;;2.88;;
63874;SDS011;51595;24.180;-110.296;2022-09-30T05:01:15;7.68;;;2.65;;
63874;SDS011;51595;24.180;-110.296;2022-09-30T05:03:43;6.15;;;2.58;;
63874;SDS011;51595;24.180;-110.296;2022-09-30T05:06:13;6.00;;;2.65;;
63874;SDS011;51595;24.180;-110.296;2022-09-30T05:08:40;7.40;;;3.20;;
63874;SDS011;51595;24.180;-110.296;2022-09-30T05:11:12;8.82;;;3.35;;
63874;SDS011;51595;24.180;-110.296;2022-09-30T05:13:42;9.90;;;3.58;;
63874;SDS011;51595;24.180;-110.296;2022-09-30T05:16:09;11.73;;;3.88;;
63874;SDS011;51595;24.180;-110.296;2022-09-30T05:18:36;6.05;;;2.90;;
63874;SDS011;51595;24.180;-110.296;2022-09-30T05:21:10;13.98;;;4.05;;
63874;SDS011;51595;24.180;-110.296;2022-09-30T05:23:38;8.52;;;3.40;;
63874;SDS011;51595;24.180;-110.296;2022-09-30T05:26:05;12.88;;;3.22;;
63874;SDS011;51595;24.180;-110.296;2022-09-30T05:28:31;12.85;;;3.53;;
63874;SDS011;51595;24.180;-110.296;2022-09-30T05:30:58;13.85;;;3.30;;
63874;SDS011;51595;24.180;-110.296;2022-09-30T05:33:27;9.45;;;3.20;;
63874;SDS011;51595;24.180;-110.296;2022-09-30T05:35:58;16.77;;;3.65;;
63874;SDS011;51595;24.180;-110.296;2022-09-30T05:38:26;15.13;;;3.65;;
63874;SDS011;51595;24.180;-110.296;2022-09-30T05:40:52;10.77;;;3.40;;
63874;SDS011;51595;24.180;-110.296;2022-09-30T05:43:19;10.30;;;3.22;;
63874;SDS011;51595;24.180;-110.296;2022-09-30T05:45:53;9.95;;;3.55;;
63874;SDS011;51595;24.180;-110.296;2022-09-30T05:48:20;12.73;;;4.18;;
63874;SDS011;51595;24.180;-110.296;2022-09-30T05:50:48;14.43;;;3.83;;
63874;SDS011;51595;24.180;-110.296;2022-09-30T05:53:18;11.40;;;4.10;;
63874;SDS011;51595;24.180;-110.296;2022-09-30T05:55:45;15.63;;;4.35;;
63874;SDS011;51595;24.180;-110.296;2022-09-30T05:58:15;13.25;;;3.90;;
63874;SDS011;51595;24.180;-110.296;2022-09-30T06:00:43;18.30;;;4.25;;
63874;SDS011;51595;24.180;-110.296;2022-09-30T06:03:11;15.73;;;4.20;;
63874;SDS011;51595;24.180;-110.296;2022-09-30T06:05:38;16.55;;;3.90;;
63874;SDS011;51595;24.180;-110.296;2022-09-30T06:08:05;12.18;;;3.95;;
63874;SDS011;51595;24.180;-110.296;2022-09-30T06:10:33;16.75;;;4.57;;
63874;SDS011;51595;24.180;-110.296;2022-09-30T06:13:01;20.38;;;4.63;;
63874;SDS011;51595;24.180;-110.296;2022-09-30T06:15:30;15.60;;;4.50;;
63874;SDS011;51595;24.180;-110.296;2022-09-30T06:17:56;22.95;;;4.93;;
63874;SDS011;51595;24.180;-110.296;2022-09-30T06:20:23;18.00;;;4.47;;
63874;SDS011;51595;24.180;-110.296;2022-09-30T06:22:50;14.07;;;4.45;;
63874;SDS011;51595;24.180;-110.296;2022-09-30T06:25:16;18.63;;;5.25;;
63874;SDS011;51595;24.180;-110.296;2022-09-30T06:27:43;22.40;;;4.30;;
63874;SDS011;51595;24.180;-110.296;2022-09-30T06:30:11;20.15;;;4.85;;
63874;SDS011;51595;24.180;-110.296;2022-09-30T06:32:38;14.30;;;4.75;;
63874;SDS011;51595;24.180;-110.296;2022-09-30T06:35:04;17.60;;;4.70;;
63874;SDS011;51595;24.180;-110.296;2022-09-30T06:37:31;12.02;;;4.43;;
63874;SDS011;51595;24.180;-110.296;2022-09-30T06:40:01;17.63;;;4.60;;
63874;SDS011;51595;24.180;-110.296;2022-09-30T06:42:28;17.75;;;4.22;;
63874;SDS011;51595;24.180;-110.296;2022-09-30T06:44:55;17.58;;;4.47;;
63874;SDS011;51595;24.180;-110.296;2022-09-30T06:47:21;17.83;;;4.15;;
63874;SDS011;51595;24.180;-110.296;2022-09-30T06:49:47;18.95;;;4.57;;
63874;SDS011;51595;24.180;-110.296;2022-09-30T06:52:15;18.17;;;5.32;;
63874;SDS011;51595;24.180;-110.296;2022-09-30T06:54:41;15.82;;;4.38;;
63874;SDS011;51595;24.180;-110.296;2022-09-30T06:57:08;13.80;;;4.00;;
63874;SDS011;51595;24.180;-110.296;2022-09-30T06:59:35;14.30;;;4.50;;
63874;SDS011;51595;24.180;-110.296;2022-09-30T07:02:01;13.07;;;4.03;;
63874;SDS011;51595;24.180;-110.296;2022-09-30T07:04:28;20.95;;;4.20;;
63874;SDS011;51595;24.180;-110.296;2022-09-30T07:06:54;16.90;;;4.63;;
63874;SDS011;51595;24.180;-110.296;2022-09-30T07:09:21;13.20;;;4.60;;
63874;SDS011;51595;24.180;-110.296;2022-09-30T07:11:47;17.92;;;4.65;;
63874;SDS011;51595;24.180;-110.296;2022-09-30T07:14:14;14.60;;;4.00;;
63874;SDS011;51595;24.180;-110.296;2022-09-30T07:16:41;12.95;;;3.72;;
63874;SDS011;51595;24.180;-110.296;2022-09-30T07:19:09;15.70;;;4.50;;
63874;SDS011;51595;24.180;-110.296;2022-09-30T07:21:36;12.65;;;3.33;;
63874;SDS011;51595;24.180;-110.296;2022-09-30T07:24:02;12.70;;;3.80;;
63874;SDS011;51595;24.180;-110.296;2022-09-30T07:26:29;18.42;;;4.40;;
63874;SDS011;51595;24.180;-110.296;2022-09-30T07:28:56;14.55;;;3.78;;
63874;SDS011;51595;24.180;-110.296;2022-09-30T07:31:24;9.77;;;3.60;;
63874;SDS011;51595;24.180;-110.296;2022-09-30T07:33:51;9.80;;;3.63;;
63874;SDS011;51595;24.180;-110.296;2022-09-30T07:36:19;16.10;;;4.32;;
63874;SDS011;51595;24.180;-110.296;2022-09-30T07:38:51;14.43;;;4.13;;
63874;SDS011;51595;24.180;-110.296;2022-09-30T07:41:19;14.63;;;4.15;;
63874;SDS011;51595;24.180;-110.296;2022-09-30T07:43:51;14.15;;;3.72;;
63874;SDS011;51595;24.180;-110.296;2022-09-30T07:46:25;9.85;;;3.50;;
63874;SDS011;51595;24.180;-110.296;2022-09-30T07:48:54;11.48;;;3.63;;
63874;SDS011;51595;24.180;-110.296;2022-09-30T07:54:01;18.17;;;4.57;;
63874;SDS011;51595;24.180;-110.296;2022-09-30T07:56:32;12.32;;;4.40;;
63874;SDS011;51595;24.180;-110.296;2022-09-30T07:59:02;12.20;;;3.75;;
63874;SDS011;51595;24.180;-110.296;2022-09-30T08:01:30;14.23;;;4.40;;
63874;SDS011;51595;24.180;-110.296;2022-09-30T08:03:58;14.57;;;4.30;;
63874;SDS011;51595;24.180;-110.296;2022-09-30T08:06:27;16.88;;;4.45;;
63874;SDS011;51595;24.180;-110.296;2022-09-30T08:08:55;16.70;;;4.50;;
63874;SDS011;51595;24.180;-110.296;2022-09-30T08:11:22;11.77;;;3.80;;
63874;SDS011;51595;24.180;-110.296;2022-09-30T08:13:50;15.98;;;3.95;;
63874;SDS011;51595;24.180;-110.296;2022-09-30T08:16:18;15.02;;;3.90;;
63874;SDS011;51595;24.180;-110.296;2022-09-30T08:18:45;17.00;;;4.00;;
63874;SDS011;51595;24.180;-110.296;2022-09-30T08:21:11;14.27;;;3.83;;
63874;SDS011;51595;24.180;-110.296;2022-09-30T08:23:38;14.63;;;3.80;;
63874;SDS011;51595;24.180;-110.296;2022-09-30T08:26:08;8.40;;;3.15;;
63874;SDS011;51595;24.180;-110.296;2022-09-30T08:28:36;14.82;;;3.97;;
63874;SDS011;51595;24.180;-110.296;2022-09-30T08:31:08;10.73;;;4.15;;
63874;SDS011;51595;24.180;-110.296;2022-09-30T08:33:37;11.75;;;4.18;;
63874;SDS011;51595;24.180;-110.296;2022-09-30T08:36:08;11.95;;;4.47;;
63874;SDS011;51595;24.180;-110.296;2022-09-30T08:38:39;11.20;;;3.47;;
63874;SDS011;51595;24.180;-110.296;2022-09-30T08:46:25;19.52;;;4.30;;
63874;SDS011;51595;24.180;-110.296;2022-09-30T08:52:11;15.20;;;4.53;;
63874;SDS011;51595;24.180;-110.296;2022-09-30T08:54:45;14.20;;;3.90;;
63874;SDS011;51595;24.180;-110.296;2022-09-30T08:57:16;10.02;;;3.72;;
63874;SDS011;51595;24.180;-110.296;2022-09-30T08:59:58;15.02;;;4.10;;
63874;SDS011;51595;24.180;-110.296;2022-09-30T09:02:36;12.48;;;3.95;;
63874;SDS011;51595;24.180;-110.296;2022-09-30T09:05:44;17.45;;;4.00;;
63874;SDS011;51595;24.180;-110.296;2022-09-30T09:08:06;10.23;;;3.65;;
63874;SDS011;51595;24.180;-110.296;2022-09-30T09:11:09;12.98;;;3.80;;
63874;SDS011;51595;24.180;-110.296;2022-09-30T09:19:10;14.40;;;4.07;;
63874;SDS011;51595;24.180;-110.296;2022-09-30T09:21:46;12.88;;;4.10;;
63874;SDS011;51595;24.180;-110.296;2022-09-30T09:24:23;15.13;;;3.97;;
63874;SDS011;51595;24.180;-110.296;2022-09-30T09:26:54;17.70;;;4.13;;
63874;SDS011;51595;24.180;-110.296;2022-09-30T09:32:14;13.00;;;3.75;;
63874;SDS011;51595;24.180;-110.296;2022-09-30T09:34:42;14.88;;;4.03;;
63874;SDS011;51595;24.180;-110.296;2022-09-30T09:39:56;16.42;;;4.18;;
63874;SDS011;51595;24.180;-110.296;2022-09-30T09:43:36;10.27;;;4.07;;
63874;SDS011;51595;24.180;-110.296;2022-09-30T09:45:35;12.82;;;3.78;;
63874;SDS011;51595;24.180;-110.296;2022-09-30T09:48:12;10.60;;;3.72;;
63874;SDS011;51595;24.180;-110.296;2022-09-30T09:56:17;8.70;;;3.80;;
63874;SDS011;51595;24.180;-110.296;2022-09-30T10:01:32;13.20;;;4.15;;
63874;SDS011;51595;24.180;-110.296;2022-09-30T10:04:09;12.18;;;4.28;;
63874;SDS011;51595;24.180;-110.296;2022-09-30T10:06:43;12.40;;;4.65;;
63874;SDS011;51595;24.180;-110.296;2022-09-30T10:09:33;11.70;;;4.05;;
63874;SDS011;51595;24.180;-110.296;2022-09-30T10:17:25;15.40;;;4.35;;
63874;SDS011;51595;24.180;-110.296;2022-09-30T10:20:05;13.13;;;3.88;;
63874;SDS011;51595;24.180;-110.296;2022-09-30T10:22:39;15.20;;;4.28;;
63874;SDS011;51595;24.180;-110.296;2022-09-30T10:27:53;14.60;;;4.55;;
63874;SDS011;51595;24.180;-110.296;2022-09-30T10:33:44;12.30;;;4.28;;
63874;SDS011;51595;24.180;-110.296;2022-09-30T10:36:16;13.25;;;3.95;;
63874;SDS011;51595;24.180;-110.296;2022-09-30T10:39:06;10.73;;;3.92;;
63874;SDS011;51595;24.180;-110.296;2022-09-30T10:41:34;10.35;;;3.72;;
63874;SDS011;51595;24.180;-110.296;2022-09-30T10:44:03;13.07;;;4.22;;
63874;SDS011;51595;24.180;-110.296;2022-09-30T10:46:35;16.83;;;4.00;;
63874;SDS011;51595;24.180;-110.296;2022-09-30T10:51:49;10.77;;;4.47;;
63874;SDS011;51595;24.180;-110.296;2022-09-30T10:57:04;12.25;;;4.07;;
63874;SDS011;51595;24.180;-110.296;2022-09-30T10:59:38;15.57;;;4.03;;
63874;SDS011;51595;24.180;-110.296;2022-09-30T11:05:00;16.77;;;4.00;;
63874;SDS011;51595;24.180;-110.296;2022-09-30T11:13:43;14.88;;;4.50;;
63874;SDS011;51595;24.180;-110.296;2022-09-30T11:19:01;15.65;;;4.47;;
63874;SDS011;51595;24.180;-110.296;2022-09-30T11:21:38;14.13;;;4.68;;
63874;SDS011;51595;24.180;-110.296;2022-09-30T11:40:28;16.85;;;5.00;;
63874;SDS011;51595;24.180;-110.296;2022-09-30T12:05:02;14.90;;;5.18;;
63874;SDS011;51595;24.180;-110.296;2022-09-30T12:07:42;18.45;;;4.88;;
63874;SDS011;51595;24.180;-110.296;2022-09-30T12:10:26;19.30;;;5.10;;
63874;SDS011;51595;24.180;-110.296;2022-09-30T12:13:07;18.90;;;4.78;;
63874;SDS011;51595;24.180;-110.296;2022-09-30T12:15:37;12.38;;;5.18;;
63874;SDS011;51595;24.180;-110.296;2022-09-30T12:18:12;14.57;;;5.18;;
63874;SDS011;51595;24.180;-110.296;2022-09-30T12:20:50;15.43;;;5.25;;
63874;SDS011;51595;24.180;-110.296;2022-09-30T12:23:29;17.80;;;5.55;;
63874;SDS011;51595;24.180;-110.296;2022-09-30T12:26:01;21.85;;;5.53;;
63874;SDS011;51595;24.180;-110.296;2022-09-30T12:48:27;13.05;;;4.85;;
63874;SDS011;51595;24.180;-110.296;2022-09-30T12:51:05;14.57;;;4.68;;
63874;SDS011;51595;24.180;-110.296;2022-09-30T12:53:34;13.25;;;5.40;;
63874;SDS011;51595;24.180;-110.296;2022-09-30T12:56:10;11.00;;;4.40;;
63874;SDS011;51595;24.180;-110.296;2022-09-30T12:58:43;12.63;;;5.18;;
63874;SDS011;51595;24.180;-110.296;2022-09-30T13:01:17;11.68;;;5.05;;
63874;SDS011;51595;24.180;-110.296;2022-09-30T13:06:27;13.00;;;4.55;;
63874;SDS011;51595;24.180;-110.296;2022-09-30T13:11:42;14.02;;;5.15;;
63874;SDS011;51595;24.180;-110.296;2022-09-30T13:19:36;13.88;;;5.25;;
63874;SDS011;51595;24.180;-110.296;2022-09-30T13:32:41;25.52;;;5.80;;
63874;SDS011;51595;24.180;-110.296;2022-09-30T13:43:16;16.90;;;4.93;;
63874;SDS011;51595;24.180;-110.296;2022-09-30T13:46:06;23.38;;;4.65;;
63874;SDS011;51595;24.180;-110.296;2022-09-30T13:48:51;17.50;;;4.93;;
63874;SDS011;51595;24.180;-110.296;2022-09-30T13:51:23;11.68;;;4.32;;
63874;SDS011;51595;24.180;-110.296;2022-09-30T13:53:54;15.13;;;4.13;;
63874;SDS011;51595;24.180;-110.296;2022-09-30T13:56:28;19.63;;;4.75;;
63874;SDS011;51595;24.180;-110.296;2022-09-30T14:01:49;20.83;;;4.97;;
63874;SDS011;51595;24.180;-110.296;2022-09-30T14:07:19;30.10;;;5.57;;
63874;SDS011;51595;24.180;-110.296;2022-09-30T14:10:02;28.70;;;5.22;;
63874;SDS011;51595;24.180;-110.296;2022-09-30T14:18:46;24.83;;;6.10;;
63874;SDS011;51595;24.180;-110.296;2022-09-30T14:21:46;30.15;;;5.60;;
63874;SDS011;51595;24.180;-110.296;2022-09-30T14:24:15;34.25;;;6.35;;
63874;SDS011;51595;24.180;-110.296;2022-09-30T14:26:56;34.55;;;6.68;;
63874;SDS011;51595;24.180;-110.296;2022-09-30T14:32:11;31.60;;;5.88;;
63874;SDS011;51595;24.180;-110.296;2022-09-30T14:34:44;22.48;;;5.45;;
63874;SDS011;51595;24.180;-110.296;2022-09-30T14:37:17;31.83;;;5.60;;
63874;SDS011;51595;24.180;-110.296;2022-09-30T14:39:55;27.15;;;4.75;;
63874;SDS011;51595;24.180;-110.296;2022-09-30T14:42:28;40.55;;;5.88;;
63874;SDS011;51595;24.180;-110.296;2022-09-30T14:45:02;31.70;;;5.75;;
63874;SDS011;51595;24.180;-110.296;2022-09-30T14:47:37;36.38;;;5.85;;
63874;SDS011;51595;24.180;-110.296;2022-09-30T14:50:17;23.30;;;5.70;;
63874;SDS011;51595;24.180;-110.296;2022-09-30T14:52:48;26.20;;;5.10;;
63874;SDS011;51595;24.180;-110.296;2022-09-30T14:57:54;22.02;;;5.60;;
63874;SDS011;51595;24.180;-110.296;2022-09-30T15:00:43;21.50;;;5.28;;
63874;SDS011;51595;24.180;-110.296;2022-09-30T15:03:12;24.85;;;5.13;;
63874;SDS011;51595;24.180;-110.296;2022-09-30T15:05:39;31.25;;;5.85;;
63874;SDS011;51595;24.180;-110.296;2022-09-30T15:08:09;27.70;;;4.53;;
63874;SDS011;51595;24.180;-110.296;2022-09-30T15:10:47;38.70;;;5.03;;
63874;SDS011;51595;24.180;-110.296;2022-09-30T15:13:20;27.88;;;4.38;;
63874;SDS011;51595;24.180;-110.296;2022-09-30T15:15:52;22.77;;;4.50;;
63874;SDS011;51595;24.180;-110.296;2022-09-30T15:18:30;33.45;;;4.38;;
63874;SDS011;51595;24.180;-110.296;2022-09-30T15:21:05;16.42;;;3.78;;
63874;SDS011;51595;24.180;-110.296;2022-09-30T15:23:37;22.98;;;4.05;;
63874;SDS011;51595;24.180;-110.296;2022-09-30T15:26:11;36.05;;;4.47;;
63874;SDS011;51595;24.180;-110.296;2022-09-30T15:28:38;28.35;;;5.20;;
63874;SDS011;51595;24.180;-110.296;2022-09-30T15:31:04;22.58;;;4.80;;
63874;SDS011;51595;24.180;-110.296;2022-09-30T15:33:38;17.10;;;4.23;;
63874;SDS011;51595;24.180;-110.296;2022-09-30T15:36:06;16.85;;;4.95;;
63874;SDS011;51595;24.180;-110.296;2022-09-30T15:38:39;35.65;;;4.60;;
63874;SDS011;51595;24.180;-110.296;2022-09-30T15:41:10;21.98;;;4.75;;
63874;SDS011;51595;24.180;-110.296;2022-09-30T15:43:41;24.95;;;5.00;;
63874;SDS011;51595;24.180;-110.296;2022-09-30T15:46:17;25.33;;;4.93;;
63874;SDS011;51595;24.180;-110.296;2022-09-30T15:48:47;23.15;;;5.15;;
63874;SDS011;51595;24.180;-110.296;2022-09-30T15:53:56;21.27;;;4.25;;
63874;SDS011;51595;24.180;-110.296;2022-09-30T15:56:29;24.38;;;4.55;;
63874;SDS011;51595;24.180;-110.296;2022-09-30T15:59:02;14.98;;;3.88;;
63874;SDS011;51595;24.180;-110.296;2022-09-30T16:06:44;21.88;;;5.47;;
63874;SDS011;51595;24.180;-110.296;2022-09-30T16:14:46;27.45;;;4.30;;
63874;SDS011;51595;24.180;-110.296;2022-09-30T16:17:34;23.08;;;4.10;;
63874;SDS011;51595;24.180;-110.296;2022-09-30T16:20:03;21.65;;;4.43;;
63874;SDS011;51595;24.180;-110.296;2022-09-30T16:22:52;12.43;;;3.50;;
63874;SDS011;51595;24.180;-110.296;2022-09-30T16:25:32;23.52;;;3.83;;
63874;SDS011;51595;24.180;-110.296;2022-09-30T16:27:59;17.67;;;3.58;;
63874;SDS011;51595;24.180;-110.296;2022-09-30T16:30:34;20.02;;;3.83;;
63874;SDS011;51595;24.180;-110.296;2022-09-30T16:33:05;17.85;;;4.35;;
63874;SDS011;51595;24.180;-110.296;2022-09-30T16:35:32;17.85;;;3.55;;
63874;SDS011;51595;24.180;-110.296;2022-09-30T16:38:09;9.68;;;3.47;;
63874;SDS011;51595;24.180;-110.296;2022-09-30T16:40:38;15.43;;;2.80;;
63874;SDS011;51595;24.180;-110.296;2022-09-30T16:43:05;17.90;;;3.22;;
63874;SDS011;51595;24.180;-110.296;2022-09-30T16:45:36;16.50;;;3.10;;
63874;SDS011;51595;24.180;-110.296;2022-09-30T16:48:07;10.93;;;3.15;;
63874;SDS011;51595;24.180;-110.296;2022-09-30T16:53:10;16.35;;;3.60;;
63874;SDS011;51595;24.180;-110.296;2022-09-30T16:55:36;9.18;;;3.40;;
63874;SDS011;51595;24.180;-110.296;2022-09-30T16:58:03;15.10;;;3.38;;
63874;SDS011;51595;24.180;-110.296;2022-09-30T17:00:29;11.63;;;3.22;;
63874;SDS011;51595;24.180;-110.296;2022-09-30T17:02:57;9.85;;;2.58;;
63874;SDS011;51595;24.180;-110.296;2022-09-30T17:05:24;13.10;;;2.92;;
63874;SDS011;51595;24.180;-110.296;2022-09-30T17:07:56;12.85;;;3.40;;
63874;SDS011;51595;24.180;-110.296;2022-09-30T17:10:25;11.25;;;3.13;;
63874;SDS011;51595;24.180;-110.296;2022-09-30T17:12:58;12.52;;;2.90;;
63874;SDS011;51595;24.180;-110.296;2022-09-30T17:15:25;8.48;;;2.85;;
63874;SDS011;51595;24.180;-110.296;2022-09-30T17:17:53;10.15;;;2.72;;
63874;SDS011;51595;24.180;-110.296;2022-09-30T17:20:20;12.07;;;2.75;;
63874;SDS011;51595;24.180;-110.296;2022-09-30T17:22:50;11.55;;;2.67;;
63874;SDS011;51595;24.180;-110.296;2022-09-30T17:25:17;15.95;;;3.08;;
63874;SDS011;51595;24.180;-110.296;2022-09-30T17:27:47;16.70;;;2.95;;
63874;SDS011;51595;24.180;-110.296;2022-09-30T17:30:17;12.70;;;3.10;;
63874;SDS011;51595;24.180;-110.296;2022-09-30T17:32:44;9.07;;;3.17;;
63874;SDS011;51595;24.180;-110.296;2022-09-30T17:35:11;18.67;;;3.35;;
63874;SDS011;51595;24.180;-110.296;2022-09-30T17:37:41;7.90;;;2.75;;
63874;SDS011;51595;24.180;-110.296;2022-09-30T17:40:08;9.40;;;2.80;;
63874;SDS011;51595;24.180;-110.296;2022-09-30T17:45:38;10.75;;;3.17;;
63874;SDS011;51595;24.180;-110.296;2022-09-30T17:48:13;14.93;;;3.42;;
63874;SDS011;51595;24.180;-110.296;2022-09-30T17:50:42;18.67;;;3.72;;
63874;SDS011;51595;24.180;-110.296;2022-09-30T17:53:11;6.75;;;2.80;;
63874;SDS011;51595;24.180;-110.296;2022-09-30T17:55:41;11.90;;;2.70;;
63874;SDS011;51595;24.180;-110.296;2022-09-30T17:58:08;8.85;;;2.47;;
63874;SDS011;51595;24.180;-110.296;2022-09-30T18:00:35;12.05;;;2.75;;
63874;SDS011;51595;24.180;-110.296;2022-09-30T18:03:03;7.35;;;2.97;;
63874;SDS011;51595;24.180;-110.296;2022-09-30T18:05:30;11.63;;;3.00;;
63874;SDS011;51595;24.180;-110.296;2022-09-30T18:07:57;8.27;;;2.70;;
63874;SDS011;51595;24.180;-110.296;2022-09-30T18:10:24;28.90;;;3.20;;
63874;SDS011;51595;24.180;-110.296;2022-09-30T18:12:52;6.95;;;2.70;;
63874;SDS011;51595;24.180;-110.296;2022-09-30T18:15:20;9.63;;;2.42;;
63874;SDS011;51595;24.180;-110.296;2022-09-30T18:17:47;10.05;;;2.55;;
63874;SDS011;51595;24.180;-110.296;2022-09-30T18:20:21;10.25;;;3.03;;
63874;SDS011;51595;24.180;-110.296;2022-09-30T18:22:49;9.27;;;2.63;;
63874;SDS011;51595;24.180;-110.296;2022-09-30T18:25:15;8.77;;;2.78;;
63874;SDS011;51595;24.180;-110.296;2022-09-30T18:27:57;9.38;;;2.47;;
63874;SDS011;51595;24.180;-110.296;2022-09-30T18:30:24;12.02;;;2.42;;
63874;SDS011;51595;24.180;-110.296;2022-09-30T18:32:52;8.85;;;2.50;;
63874;SDS011;51595;24.180;-110.296;2022-09-30T18:35:19;11.30;;;3.03;;